Flight Track Log - Related Links

Times and Time Zones

All times are in EDT time to prevent confusion due to time zone crossing. See the LOF3357 flight status page for this flight to view local times or setup timezone preferences in your user account.

Time Position Orientation Groundspeed Altitude Reporting Facility
EDT Latitude Longitude Course Direction KTS MPH feet Rate Location/Type
Fri 01:21:33 PM 38.9333 -77.5667 251° West 227 261 3,100  Level Potomac TRACON
Fri 01:22:59 PM 38.8992 -77.6933 251° West 245 282 6,200 2,082 Climbing Washington Center
Fri 01:24:00 PM 38.8869 -77.7944 261° West 277 319 8,200 1,967 Climbing Washington Center
Fri 01:25:01 PM 38.8808 -77.9011 266° West 295 339 10,200 1,815 Climbing Washington Center
Fri 01:25:59 PM 38.9078 -78.0086 288° West 295 339 11,800 1,462 Climbing Washington Center
Fri 01:27:00 PM 38.9367 -78.1242 288° West 316 364 13,100 1,190 Climbing Washington Center
Fri 01:28:00 PM 38.9633 -78.2481 286° West 346 398 14,200 1,240 Climbing Washington Center
Fri 01:29:01 PM 38.9664 -78.3817 272° West 361 415 15,600 1,311 Climbing Washington Center
Fri 01:29:59 PM 38.9697 -78.5125 272° West 372 428 16,800 1,109 Climbing Washington Center
Fri 01:31:00 PM 38.9725 -78.6461 272° West 372 428 17,800 992 Climbing Washington Center
Fri 01:32:00 PM 38.9753 -78.7825 272° West 377 434 18,800 1,091 Climbing Washington Center
Fri 01:33:01 PM 38.9800 -78.9189 273° West 383 441 20,000 1,041 Climbing Washington Center
Fri 01:34:01 PM 38.9886 -79.0608 275° West 388 447 20,900 966 Climbing Washington Center
Fri 01:34:59 PM 39.0011 -79.2003 277° West 393 452 21,900 958 Climbing Washington Center
Fri 01:36:00 PM 39.0133 -79.3453 276° West 398 458 22,800 893 Climbing Washington Center
Fri 01:37:00 PM 39.0231 -79.4928 275° West 409 471 23,700 843 Climbing Washington Center
Fri 01:38:01 PM 39.0369 -79.6458 277° West 414 476 24,500 744 Climbing Washington Center
Fri 01:39:01 PM 39.0469 -79.7747 276° West 425 489 25,200 712 Climbing Washington Center
Fri 01:39:59 PM 39.0564 -79.9194 275° West 420 483 25,900 738 Climbing Washington Center
Fri 01:41:11 PM 39.0642 -80.0925 273° West 418 481 26,800 662 Climbing Indianapolis Center
Fri 01:42:15 PM 39.0747 -80.2422 275° West 421 484 27,400 968 Climbing Indianapolis Center
Fri 01:43:15 PM 39.0800 -80.4181 272° West 408 470 28,800 1,279 Climbing Indianapolis Center
Fri 01:44:17 PM 39.0717 -80.5553 266° West 389 448 30,000 1,008 Climbing Indianapolis Center
Fri 01:45:20 PM 39.0647 -80.6931 266° West 387 445 30,900 480 Climbing Indianapolis Center
Fri 01:46:22 PM 39.0589 -80.8347 267° West 395 455 31,000 293 Climbing Indianapolis Center
Fri 01:47:23 PM 39.0494 -80.9808 265° West 410 472 31,500 689 Climbing Indianapolis Center
Fri 01:48:24 PM 39.0531 -81.1275 272° West 420 483 32,400 1,008 Climbing Indianapolis Center
Fri 01:49:28 PM 39.0844 -81.3011 283° West 419 482 33,600 1,016 Climbing Indianapolis Center
Fri 01:50:28 PM 39.1086 -81.4461 282° West 419 482 34,500 793 Climbing Indianapolis Center
Fri 01:51:29 PM 39.1325 -81.5900 282° West 416 479 35,200 726 Climbing Indianapolis Center
Fri 01:52:32 PM 39.1564 -81.7353 282° West 417 480 36,000 387 Climbing Indianapolis Center
Fri 01:53:33 PM 39.1803 -81.8831 282° West 424 488 36,000  Level Indianapolis Center
Fri 01:54:35 PM 39.2053 -82.0331 282° West 430 495 36,000  Level Indianapolis Center
Fri 01:55:39 PM 39.2336 -82.2172 281° West 435 501 36,000  Level Indianapolis Center
Fri 01:56:39 PM 39.2575 -82.3697 281° West 434 499 36,000  Level Indianapolis Center
Fri 01:57:42 PM 39.2803 -82.5214 281° West 436 502 36,000  Level Indianapolis Center
Fri 01:58:43 PM 39.3056 -82.6767 282° West 437 503 36,000  Level Indianapolis Center
Fri 01:59:44 PM 39.3289 -82.8342 281° West 441 507 36,000  Level Indianapolis Center
Fri 02:00:48 PM 39.3531 -82.9892 281° West 438 504 36,000  Level Indianapolis Center
Fri 02:01:48 PM 39.3769 -83.1447 281° West 437 503 36,000  Level Indianapolis Center
Fri 02:02:52 PM 39.4036 -83.3278 281° West 438 504 36,000  Level Indianapolis Center
Fri 02:03:53 PM 39.4247 -83.4850 280° West 437 503 36,000  Level Indianapolis Center
Fri 02:04:53 PM 39.4281 -83.6461 272° West 441 507 36,000  Level Indianapolis Center
Fri 02:05:57 PM 39.4297 -83.8081 271° West 444 511 36,000  Level Indianapolis Center
Fri 02:06:57 PM 39.4300 -83.9697 270° West 445 512 36,000  Level Indianapolis Center
Fri 02:08:01 PM 39.4317 -84.1319 271° West 446 513 36,000  Level Indianapolis Center
Fri 02:09:02 PM 39.4325 -84.2933 270° West 445 512 36,000  Level Indianapolis Center
Fri 02:10:02 PM 39.4336 -84.4567 271° West 448 516 36,000  Level Indianapolis Center
Fri 02:11:06 PM 39.4339 -84.6181 270° West 445 512 36,000  Level Indianapolis Center
Fri 02:12:07 PM 39.4344 -84.7808 270° West 449 517 36,000  Level Indianapolis Center
Fri 02:13:08 PM 39.4344 -84.9400 270° West 450 518 36,000  Level Indianapolis Center
Fri 02:14:12 PM 39.4333 -85.1367 270° West 456 525 36,000  Level Indianapolis Center
Fri 02:15:13 PM 39.4333 -85.3017 270° West 459 528 36,000  Level Indianapolis Center
Fri 02:16:15 PM 39.4331 -85.4661 270° West 461 531 36,000  Level Indianapolis Center
Fri 02:17:16 PM 39.4311 -85.6289 269° West 454 522 36,000  Level Indianapolis Center
Fri 02:18:20 PM 39.4297 -85.7872 269° West 442 509 36,000  Level Indianapolis Center
Fri 02:19:21 PM 39.4289 -85.9458 270° West 439 505 36,000  Level Indianapolis Center
Fri 02:20:21 PM 39.4264 -86.1047 269° West 440 506 36,000  Level Indianapolis Center
Fri 02:21:23 PM 39.4247 -86.3003 269° West 449 517 36,000  Level Indianapolis Center
Fri 02:22:27 PM 39.4231 -86.4658 269° West 455 524 36,000 -435 Level Indianapolis Center
Fri 02:23:27 PM 39.4214 -86.6297 269° West 455 524 35,100 -968 Descending Indianapolis Center
Fri 02:24:31 PM 39.4186 -86.7872 269° West 441 507 34,000 -532 Descending Indianapolis Center
Fri 02:25:31 PM 39.4156 -86.9414 269° West 431 496 34,000  Level Indianapolis Center
Fri 02:26:35 PM 39.4131 -87.1003 269° West 440 506 34,000  Level Indianapolis Center
Fri 02:27:36 PM 39.4097 -87.2650 269° West 456 525 34,000  Level Indianapolis Center
Fri 02:28:39 PM 39.4050 -87.4586 268° West 451 519 34,000  Level Indianapolis Center
Fri 02:29:40 PM 39.4019 -87.6192 269° West 448 516 34,000 -339 Level Indianapolis Center
Fri 02:30:43 PM 39.3969 -87.7775 268° West 445 512 33,300 -1,306 Descending Indianapolis Center
Fri 02:31:44 PM 39.3922 -87.9406 268° West 452 520 31,300 -2,032 Descending Indianapolis Center
Fri 02:32:47 PM 39.3767 -88.1061 263° West 465 535 29,100 -1,935 Descending Indianapolis Center
Fri 02:33:48 PM 39.3303 -88.2783 251° West 481 554 27,300 -1,548 Descending Indianapolis Center
Fri 02:34:20 PM 39.3031 -88.3781 251° West 481 554 26,700 -1,085 Descending Kansas City Center
Fri 02:35:22 PM 39.2603 -88.5350 251° West 469 540 25,600 -1,113 Descending Kansas City Center
Fri 02:36:24 PM 39.2139 -88.7086 251° West 459 528 24,400 -919 Descending Kansas City Center
Fri 02:37:26 PM 39.1728 -88.8625 251° West 456 525 23,700 -629 Descending Kansas City Center
Fri 02:38:28 PM 39.1286 -89.0311 251° West 454 522 23,100 -968 Descending Kansas City Center
Fri 02:39:30 PM 39.0878 -89.1842 251° West 454 522 21,700 -1,887 Descending Kansas City Center
Fri 02:40:32 PM 39.0558 -89.3297 254° West 426 490 19,200 -2,516 Descending Kansas City Center
Fri 02:41:34 PM 39.0231 -89.4756 254° West 399 459 16,500 -2,032 Descending Kansas City Center
Fri 02:42:36 PM 38.9939 -89.6011 253° West 374 430 15,000 -1,500 Descending Kansas City Center
Fri 02:43:38 PM 38.9547 -89.7275 248° West 359 413 13,400 -1,694 Descending Kansas City Center
Fri 02:44:40 PM 38.9194 -89.8403 248° West 344 396 11,500 -1,452 Descending Kansas City Center
Fri 02:45:42 PM 38.8878 -89.9358 247° West 318 366 10,400 -1,065 Descending Kansas City Center
Fri 02:46:44 PM 38.8592 -90.0258 248° West 281 323 9,300 -1,016 Descending Kansas City Center
Fri 02:47:46 PM 38.8314 -90.1153 248° West 273 314 8,300 -629 Descending Kansas City Center
Fri 02:48:48 PM 38.8033 -90.2317 253° West 290 334 8,000 -581 Descending Kansas City Center
Fri 02:49:50 PM 38.8333 -90.3161 295° West 270 311 7,100 -968 Descending Kansas City Center
Fri 02:50:52 PM 38.8628 -90.4028 294° West 269 310 6,000 -1,403 Descending Kansas City Center
Fri 02:51:54 PM 38.8797 -90.4928 284° West 274 315 4,200 -1,548 Descending Kansas City Center
Fri 02:52:56 PM 38.8136 -90.5325 205° Southwest 239 275 2,800 -1,113 Descending Kansas City Center
Fri 02:53:58 PM 38.7942 -90.4811 116° Southeast 183 211 1,900 -774 Descending Kansas City Center
Fri 02:55:00 PM 38.7747 -90.4392 121° Southeast 154 177 1,200 -629 Descending Kansas City Center
Fri 02:56:02 PM 38.7517 -90.3922 122° Southeast 146 168 600 -581 Descending Kansas City Center

Login

Don't have an account? Register now (free) for customized features, flight alerts, and more!